sensor_id;sensor_type;location;lat;lon;timestamp;P1;durP1;ratioP1;P2;durP2;ratioP2
27003;SDS011;14546;47.590;19.022;2023-08-31T00:00:48;10.45;;;7.00;;
27003;SDS011;14546;47.590;19.022;2023-08-31T00:03:16;9.50;;;7.38;;
27003;SDS011;14546;47.590;19.022;2023-08-31T00:05:42;10.32;;;6.85;;
27003;SDS011;14546;47.590;19.022;2023-08-31T00:08:09;8.13;;;6.72;;
27003;SDS011;14546;47.590;19.022;2023-08-31T00:10:36;11.65;;;7.60;;
27003;SDS011;14546;47.590;19.022;2023-08-31T00:13:02;8.60;;;7.35;;
27003;SDS011;14546;47.590;19.022;2023-08-31T00:15:29;9.40;;;7.78;;
27003;SDS011;14546;47.590;19.022;2023-08-31T00:17:57;8.00;;;7.20;;
27003;SDS011;14546;47.590;19.022;2023-08-31T00:20:23;9.20;;;6.95;;
27003;SDS011;14546;47.590;19.022;2023-08-31T00:22:50;9.05;;;7.00;;
27003;SDS011;14546;47.590;19.022;2023-08-31T00:25:16;8.20;;;7.32;;
27003;SDS011;14546;47.590;19.022;2023-08-31T00:27:42;8.88;;;6.32;;
27003;SDS011;14546;47.590;19.022;2023-08-31T00:30:09;8.07;;;6.68;;
27003;SDS011;14546;47.590;19.022;2023-08-31T00:32:36;7.50;;;6.65;;
27003;SDS011;14546;47.590;19.022;2023-08-31T00:35:04;9.20;;;6.95;;
27003;SDS011;14546;47.590;19.022;2023-08-31T00:37:30;8.23;;;6.30;;
27003;SDS011;14546;47.590;19.022;2023-08-31T00:39:56;7.95;;;6.72;;
27003;SDS011;14546;47.590;19.022;2023-08-31T00:42:22;7.20;;;6.43;;
27003;SDS011;14546;47.590;19.022;2023-08-31T00:44:49;14.82;;;6.28;;
27003;SDS011;14546;47.590;19.022;2023-08-31T00:47:16;10.95;;;6.43;;
27003;SDS011;14546;47.590;19.022;2023-08-31T00:49:42;8.13;;;6.78;;
27003;SDS011;14546;47.590;19.022;2023-08-31T00:52:08;7.68;;;6.82;;
27003;SDS011;14546;47.590;19.022;2023-08-31T00:54:35;9.35;;;6.80;;
27003;SDS011;14546;47.590;19.022;2023-08-31T00:57:01;10.80;;;7.18;;
27003;SDS011;14546;47.590;19.022;2023-08-31T00:59:28;8.55;;;7.00;;
27003;SDS011;14546;47.590;19.022;2023-08-31T01:12:04;8.15;;;7.28;;
27003;SDS011;14546;47.590;19.022;2023-08-31T01:14:32;10.85;;;7.18;;
27003;SDS011;14546;47.590;19.022;2023-08-31T01:16:58;9.43;;;8.07;;
27003;SDS011;14546;47.590;19.022;2023-08-31T01:21:57;9.80;;;7.30;;
27003;SDS011;14546;47.590;19.022;2023-08-31T01:24:25;8.45;;;7.60;;
27003;SDS011;14546;47.590;19.022;2023-08-31T01:26:52;8.07;;;7.13;;
27003;SDS011;14546;47.590;19.022;2023-08-31T01:29:18;11.25;;;6.50;;
27003;SDS011;14546;47.590;19.022;2023-08-31T01:31:45;10.35;;;6.93;;
27003;SDS011;14546;47.590;19.022;2023-08-31T01:34:11;8.30;;;6.80;;
27003;SDS011;14546;47.590;19.022;2023-08-31T01:36:38;7.85;;;6.40;;
27003;SDS011;14546;47.590;19.022;2023-08-31T01:41:33;8.63;;;6.70;;
27003;SDS011;14546;47.590;19.022;2023-08-31T01:44:00;8.10;;;7.15;;
27003;SDS011;14546;47.590;19.022;2023-08-31T01:46:27;7.55;;;6.75;;
27003;SDS011;14546;47.590;19.022;2023-08-31T01:48:53;11.43;;;7.18;;
27003;SDS011;14546;47.590;19.022;2023-08-31T01:51:19;9.02;;;7.25;;
27003;SDS011;14546;47.590;19.022;2023-08-31T01:53:45;7.72;;;6.63;;
27003;SDS011;14546;47.590;19.022;2023-08-31T01:56:11;11.45;;;6.78;;
27003;SDS011;14546;47.590;19.022;2023-08-31T01:58:38;7.50;;;6.40;;
27003;SDS011;14546;47.590;19.022;2023-08-31T02:01:04;8.73;;;6.28;;
27003;SDS011;14546;47.590;19.022;2023-08-31T02:03:30;7.53;;;6.45;;
27003;SDS011;14546;47.590;19.022;2023-08-31T02:05:56;15.93;;;6.20;;
27003;SDS011;14546;47.590;19.022;2023-08-31T02:08:22;8.30;;;6.45;;
27003;SDS011;14546;47.590;19.022;2023-08-31T02:10:48;8.40;;;7.00;;
27003;SDS011;14546;47.590;19.022;2023-08-31T02:13:15;10.43;;;6.72;;
27003;SDS011;14546;47.590;19.022;2023-08-31T02:15:41;7.88;;;6.50;;
27003;SDS011;14546;47.590;19.022;2023-08-31T02:18:07;7.20;;;6.35;;
27003;SDS011;14546;47.590;19.022;2023-08-31T02:20:33;7.68;;;6.53;;
27003;SDS011;14546;47.590;19.022;2023-08-31T02:23:00;8.95;;;6.70;;
27003;SDS011;14546;47.590;19.022;2023-08-31T02:25:26;8.48;;;6.32;;
27003;SDS011;14546;47.590;19.022;2023-08-31T02:27:53;8.48;;;5.95;;
27003;SDS011;14546;47.590;19.022;2023-08-31T02:30:19;7.07;;;6.30;;
27003;SDS011;14546;47.590;19.022;2023-08-31T02:32:45;10.75;;;5.97;;
27003;SDS011;14546;47.590;19.022;2023-08-31T02:35:12;7.32;;;6.20;;
27003;SDS011;14546;47.590;19.022;2023-08-31T02:37:38;7.25;;;5.80;;
27003;SDS011;14546;47.590;19.022;2023-08-31T02:40:04;9.70;;;5.82;;
27003;SDS011;14546;47.590;19.022;2023-08-31T02:42:31;8.65;;;5.90;;
27003;SDS011;14546;47.590;19.022;2023-08-31T02:44:57;6.80;;;5.20;;
27003;SDS011;14546;47.590;19.022;2023-08-31T02:47:23;10.15;;;6.22;;
27003;SDS011;14546;47.590;19.022;2023-08-31T02:49:49;8.10;;;5.78;;
27003;SDS011;14546;47.590;19.022;2023-08-31T02:52:15;6.20;;;5.60;;
27003;SDS011;14546;47.590;19.022;2023-08-31T02:54:41;9.70;;;6.38;;
27003;SDS011;14546;47.590;19.022;2023-08-31T02:57:07;9.40;;;5.90;;
27003;SDS011;14546;47.590;19.022;2023-08-31T02:59:33;7.38;;;5.68;;
27003;SDS011;14546;47.590;19.022;2023-08-31T03:02:01;7.28;;;5.80;;
27003;SDS011;14546;47.590;19.022;2023-08-31T03:04:27;7.22;;;5.82;;
27003;SDS011;14546;47.590;19.022;2023-08-31T03:06:54;12.73;;;6.65;;
27003;SDS011;14546;47.590;19.022;2023-08-31T03:09:20;6.65;;;5.40;;
27003;SDS011;14546;47.590;19.022;2023-08-31T03:11:46;9.10;;;5.82;;
27003;SDS011;14546;47.590;19.022;2023-08-31T03:14:12;7.47;;;6.00;;
27003;SDS011;14546;47.590;19.022;2023-08-31T03:16:38;6.50;;;5.40;;
27003;SDS011;14546;47.590;19.022;2023-08-31T03:19:04;7.65;;;5.55;;
27003;SDS011;14546;47.590;19.022;2023-08-31T03:21:30;7.05;;;5.75;;
27003;SDS011;14546;47.590;19.022;2023-08-31T03:23:56;5.90;;;5.30;;
27003;SDS011;14546;47.590;19.022;2023-08-31T03:26:22;5.70;;;5.00;;
27003;SDS011;14546;47.590;19.022;2023-08-31T03:28:47;10.43;;;5.47;;
27003;SDS011;14546;47.590;19.022;2023-08-31T03:31:13;7.90;;;6.05;;
27003;SDS011;14546;47.590;19.022;2023-08-31T03:33:39;7.97;;;5.88;;
27003;SDS011;14546;47.590;19.022;2023-08-31T03:36:04;8.65;;;6.13;;
27003;SDS011;14546;47.590;19.022;2023-08-31T03:38:30;7.95;;;6.32;;
27003;SDS011;14546;47.590;19.022;2023-08-31T03:40:57;10.63;;;6.00;;
27003;SDS011;14546;47.590;19.022;2023-08-31T03:43:23;17.00;;;6.63;;
27003;SDS011;14546;47.590;19.022;2023-08-31T03:45:49;6.85;;;6.25;;
27003;SDS011;14546;47.590;19.022;2023-08-31T03:48:20;10.77;;;6.40;;
27003;SDS011;14546;47.590;19.022;2023-08-31T03:50:48;6.63;;;5.93;;
27003;SDS011;14546;47.590;19.022;2023-08-31T03:53:15;9.35;;;6.88;;
27003;SDS011;14546;47.590;19.022;2023-08-31T03:55:41;7.85;;;6.57;;
27003;SDS011;14546;47.590;19.022;2023-08-31T03:58:06;11.07;;;6.38;;
27003;SDS011;14546;47.590;19.022;2023-08-31T04:00:32;9.13;;;6.70;;
27003;SDS011;14546;47.590;19.022;2023-08-31T04:02:58;7.43;;;6.65;;
27003;SDS011;14546;47.590;19.022;2023-08-31T04:05:23;7.55;;;6.75;;
27003;SDS011;14546;47.590;19.022;2023-08-31T04:07:49;7.47;;;6.38;;
27003;SDS011;14546;47.590;19.022;2023-08-31T04:10:14;8.90;;;6.32;;
27003;SDS011;14546;47.590;19.022;2023-08-31T04:12:40;9.60;;;5.75;;
27003;SDS011;14546;47.590;19.022;2023-08-31T04:15:08;7.82;;;6.70;;
27003;SDS011;14546;47.590;19.022;2023-08-31T04:17:34;10.57;;;6.05;;
27003;SDS011;14546;47.590;19.022;2023-08-31T04:19:59;8.77;;;6.13;;
27003;SDS011;14546;47.590;19.022;2023-08-31T04:22:25;10.73;;;5.95;;
27003;SDS011;14546;47.590;19.022;2023-08-31T04:24:52;6.38;;;5.70;;
27003;SDS011;14546;47.590;19.022;2023-08-31T04:27:18;9.60;;;6.55;;
27003;SDS011;14546;47.590;19.022;2023-08-31T04:29:44;10.10;;;5.82;;
27003;SDS011;14546;47.590;19.022;2023-08-31T04:32:09;10.57;;;7.00;;
27003;SDS011;14546;47.590;19.022;2023-08-31T04:34:35;12.07;;;5.95;;
27003;SDS011;14546;47.590;19.022;2023-08-31T04:37:01;8.35;;;5.85;;
27003;SDS011;14546;47.590;19.022;2023-08-31T04:39:27;6.63;;;5.57;;
27003;SDS011;14546;47.590;19.022;2023-08-31T04:41:52;7.95;;;5.25;;
27003;SDS011;14546;47.590;19.022;2023-08-31T04:44:18;5.68;;;4.88;;
27003;SDS011;14546;47.590;19.022;2023-08-31T04:46:43;6.65;;;4.88;;
27003;SDS011;14546;47.590;19.022;2023-08-31T04:49:09;6.53;;;4.72;;
27003;SDS011;14546;47.590;19.022;2023-08-31T04:51:35;5.25;;;4.68;;
27003;SDS011;14546;47.590;19.022;2023-08-31T04:54:06;7.07;;;4.55;;
27003;SDS011;14546;47.590;19.022;2023-08-31T04:56:32;8.43;;;4.47;;
27003;SDS011;14546;47.590;19.022;2023-08-31T04:58:59;10.13;;;4.68;;
27003;SDS011;14546;47.590;19.022;2023-08-31T05:01:25;6.13;;;4.10;;
27003;SDS011;14546;47.590;19.022;2023-08-31T05:03:50;5.90;;;4.70;;
27003;SDS011;14546;47.590;19.022;2023-08-31T05:06:16;5.93;;;4.63;;
27003;SDS011;14546;47.590;19.022;2023-08-31T05:08:44;7.45;;;4.50;;
27003;SDS011;14546;47.590;19.022;2023-08-31T05:11:10;6.07;;;4.82;;
27003;SDS011;14546;47.590;19.022;2023-08-31T05:13:36;8.45;;;4.60;;
27003;SDS011;14546;47.590;19.022;2023-08-31T05:16:04;5.40;;;4.32;;
27003;SDS011;14546;47.590;19.022;2023-08-31T05:18:30;8.68;;;4.78;;
27003;SDS011;14546;47.590;19.022;2023-08-31T05:20:55;5.20;;;4.13;;
27003;SDS011;14546;47.590;19.022;2023-08-31T05:23:21;5.47;;;4.35;;
27003;SDS011;14546;47.590;19.022;2023-08-31T05:25:47;5.82;;;4.18;;
27003;SDS011;14546;47.590;19.022;2023-08-31T05:28:12;6.22;;;5.30;;
27003;SDS011;14546;47.590;19.022;2023-08-31T05:30:47;6.60;;;4.15;;
27003;SDS011;14546;47.590;19.022;2023-08-31T05:33:17;5.97;;;4.03;;
27003;SDS011;14546;47.590;19.022;2023-08-31T05:35:43;6.03;;;4.22;;
27003;SDS011;14546;47.590;19.022;2023-08-31T05:38:09;7.55;;;5.05;;
27003;SDS011;14546;47.590;19.022;2023-08-31T05:40:34;5.20;;;4.38;;
27003;SDS011;14546;47.590;19.022;2023-08-31T05:43:01;7.05;;;4.90;;
27003;SDS011;14546;47.590;19.022;2023-08-31T05:45:31;4.70;;;4.15;;
27003;SDS011;14546;47.590;19.022;2023-08-31T05:47:57;5.55;;;4.55;;
27003;SDS011;14546;47.590;19.022;2023-08-31T05:50:23;8.73;;;5.03;;
27003;SDS011;14546;47.590;19.022;2023-08-31T05:52:49;9.63;;;5.20;;
27003;SDS011;14546;47.590;19.022;2023-08-31T05:55:14;9.32;;;5.00;;
27003;SDS011;14546;47.590;19.022;2023-08-31T05:57:40;8.50;;;4.63;;
27003;SDS011;14546;47.590;19.022;2023-08-31T06:00:06;6.90;;;5.32;;
27003;SDS011;14546;47.590;19.022;2023-08-31T06:02:34;7.25;;;5.10;;
27003;SDS011;14546;47.590;19.022;2023-08-31T06:05:01;9.55;;;5.07;;
27003;SDS011;14546;47.590;19.022;2023-08-31T06:07:28;9.10;;;5.00;;
27003;SDS011;14546;47.590;19.022;2023-08-31T06:09:54;6.65;;;4.72;;
27003;SDS011;14546;47.590;19.022;2023-08-31T06:12:21;8.13;;;4.80;;
27003;SDS011;14546;47.590;19.022;2023-08-31T06:14:46;6.13;;;4.93;;
27003;SDS011;14546;47.590;19.022;2023-08-31T06:17:12;6.18;;;5.15;;
27003;SDS011;14546;47.590;19.022;2023-08-31T06:19:38;5.85;;;4.45;;
27003;SDS011;14546;47.590;19.022;2023-08-31T06:22:05;6.75;;;4.47;;
27003;SDS011;14546;47.590;19.022;2023-08-31T06:24:30;7.57;;;5.20;;
27003;SDS011;14546;47.590;19.022;2023-08-31T06:26:57;5.82;;;4.75;;
27003;SDS011;14546;47.590;19.022;2023-08-31T06:29:23;5.45;;;4.45;;
27003;SDS011;14546;47.590;19.022;2023-08-31T06:31:49;6.75;;;4.53;;
27003;SDS011;14546;47.590;19.022;2023-08-31T06:34:14;5.15;;;4.65;;
27003;SDS011;14546;47.590;19.022;2023-08-31T06:36:40;6.65;;;4.18;;
27003;SDS011;14546;47.590;19.022;2023-08-31T06:39:06;7.00;;;4.18;;
27003;SDS011;14546;47.590;19.022;2023-08-31T06:41:32;6.57;;;4.65;;
27003;SDS011;14546;47.590;19.022;2023-08-31T06:43:58;5.60;;;4.53;;
27003;SDS011;14546;47.590;19.022;2023-08-31T06:46:24;11.75;;;4.90;;
27003;SDS011;14546;47.590;19.022;2023-08-31T06:48:50;7.25;;;4.18;;
27003;SDS011;14546;47.590;19.022;2023-08-31T06:51:16;5.47;;;4.00;;
27003;SDS011;14546;47.590;19.022;2023-08-31T06:53:42;6.00;;;4.28;;
27003;SDS011;14546;47.590;19.022;2023-08-31T06:56:09;4.30;;;3.90;;
27003;SDS011;14546;47.590;19.022;2023-08-31T06:58:34;8.57;;;4.72;;
27003;SDS011;14546;47.590;19.022;2023-08-31T07:01:00;6.50;;;4.07;;
27003;SDS011;14546;47.590;19.022;2023-08-31T07:03:26;4.97;;;3.88;;
27003;SDS011;14546;47.590;19.022;2023-08-31T07:05:52;6.63;;;3.63;;
27003;SDS011;14546;47.590;19.022;2023-08-31T07:08:17;6.05;;;3.72;;
27003;SDS011;14546;47.590;19.022;2023-08-31T07:10:43;6.07;;;3.70;;
27003;SDS011;14546;47.590;19.022;2023-08-31T07:13:09;4.30;;;3.55;;
27003;SDS011;14546;47.590;19.022;2023-08-31T07:15:35;3.92;;;3.40;;
27003;SDS011;14546;47.590;19.022;2023-08-31T07:18:00;6.68;;;3.85;;
27003;SDS011;14546;47.590;19.022;2023-08-31T07:20:26;14.80;;;3.97;;
27003;SDS011;14546;47.590;19.022;2023-08-31T07:22:52;7.57;;;3.97;;
27003;SDS011;14546;47.590;19.022;2023-08-31T07:25:18;4.03;;;3.63;;
27003;SDS011;14546;47.590;19.022;2023-08-31T07:27:43;4.53;;;3.83;;
27003;SDS011;14546;47.590;19.022;2023-08-31T07:30:09;4.55;;;3.53;;
27003;SDS011;14546;47.590;19.022;2023-08-31T07:32:35;4.70;;;3.80;;
27003;SDS011;14546;47.590;19.022;2023-08-31T07:35:01;5.72;;;3.50;;
27003;SDS011;14546;47.590;19.022;2023-08-31T07:37:29;6.32;;;3.30;;
27003;SDS011;14546;47.590;19.022;2023-08-31T07:39:57;4.90;;;3.58;;
27003;SDS011;14546;47.590;19.022;2023-08-31T07:42:23;4.78;;;3.05;;
27003;SDS011;14546;47.590;19.022;2023-08-31T07:44:49;8.27;;;3.83;;
27003;SDS011;14546;47.590;19.022;2023-08-31T07:47:15;7.28;;;3.22;;
27003;SDS011;14546;47.590;19.022;2023-08-31T07:49:41;5.28;;;3.10;;
27003;SDS011;14546;47.590;19.022;2023-08-31T07:52:07;4.47;;;3.45;;
27003;SDS011;14546;47.590;19.022;2023-08-31T07:54:33;4.70;;;3.50;;
27003;SDS011;14546;47.590;19.022;2023-08-31T07:56:59;5.55;;;3.63;;
27003;SDS011;14546;47.590;19.022;2023-08-31T07:59:25;8.25;;;3.75;;
27003;SDS011;14546;47.590;19.022;2023-08-31T08:01:51;5.38;;;3.55;;
27003;SDS011;14546;47.590;19.022;2023-08-31T08:04:16;5.75;;;4.32;;
27003;SDS011;14546;47.590;19.022;2023-08-31T08:06:45;7.15;;;3.55;;
27003;SDS011;14546;47.590;19.022;2023-08-31T08:09:11;4.68;;;3.70;;
27003;SDS011;14546;47.590;19.022;2023-08-31T08:11:37;5.63;;;3.88;;
27003;SDS011;14546;47.590;19.022;2023-08-31T08:14:03;5.63;;;4.35;;
27003;SDS011;14546;47.590;19.022;2023-08-31T08:16:28;6.97;;;4.53;;
27003;SDS011;14546;47.590;19.022;2023-08-31T08:18:54;6.90;;;4.35;;
27003;SDS011;14546;47.590;19.022;2023-08-31T08:21:21;4.22;;;3.75;;
27003;SDS011;14546;47.590;19.022;2023-08-31T08:23:47;7.05;;;3.97;;
27003;SDS011;14546;47.590;19.022;2023-08-31T08:26:15;5.80;;;3.80;;
27003;SDS011;14546;47.590;19.022;2023-08-31T08:28:42;5.57;;;3.55;;
27003;SDS011;14546;47.590;19.022;2023-08-31T08:31:08;8.15;;;4.70;;
27003;SDS011;14546;47.590;19.022;2023-08-31T08:33:36;5.55;;;3.75;;
27003;SDS011;14546;47.590;19.022;2023-08-31T08:36:04;8.70;;;3.75;;
27003;SDS011;14546;47.590;19.022;2023-08-31T08:38:33;6.50;;;3.50;;
27003;SDS011;14546;47.590;19.022;2023-08-31T08:41:03;15.05;;;4.68;;
27003;SDS011;14546;47.590;19.022;2023-08-31T08:43:30;5.22;;;4.03;;
27003;SDS011;14546;47.590;19.022;2023-08-31T08:45:57;10.18;;;4.57;;
27003;SDS011;14546;47.590;19.022;2023-08-31T08:48:26;9.35;;;3.67;;
27003;SDS011;14546;47.590;19.022;2023-08-31T08:50:52;10.32;;;3.55;;
27003;SDS011;14546;47.590;19.022;2023-08-31T08:53:19;5.32;;;3.58;;
27003;SDS011;14546;47.590;19.022;2023-08-31T08:55:46;4.30;;;3.00;;
27003;SDS011;14546;47.590;19.022;2023-08-31T08:58:12;5.57;;;2.80;;
27003;SDS011;14546;47.590;19.022;2023-08-31T09:00:38;5.07;;;2.70;;
27003;SDS011;14546;47.590;19.022;2023-08-31T09:03:05;3.50;;;2.85;;
27003;SDS011;14546;47.590;19.022;2023-08-31T09:05:32;3.45;;;2.50;;
27003;SDS011;14546;47.590;19.022;2023-08-31T09:08:03;3.90;;;2.53;;
27003;SDS011;14546;47.590;19.022;2023-08-31T09:10:32;10.80;;;3.13;;
27003;SDS011;14546;47.590;19.022;2023-08-31T09:13:00;6.38;;;2.70;;
27003;SDS011;14546;47.590;19.022;2023-08-31T09:15:26;8.38;;;2.60;;
27003;SDS011;14546;47.590;19.022;2023-08-31T09:18:02;9.38;;;2.83;;
27003;SDS011;14546;47.590;19.022;2023-08-31T09:20:28;4.53;;;2.90;;
27003;SDS011;14546;47.590;19.022;2023-08-31T09:22:55;9.80;;;2.85;;
27003;SDS011;14546;47.590;19.022;2023-08-31T09:25:22;2.40;;;2.10;;
27003;SDS011;14546;47.590;19.022;2023-08-31T09:27:48;5.70;;;2.42;;
27003;SDS011;14546;47.590;19.022;2023-08-31T09:30:14;2.75;;;2.08;;
27003;SDS011;14546;47.590;19.022;2023-08-31T09:32:40;4.60;;;2.35;;
27003;SDS011;14546;47.590;19.022;2023-08-31T09:35:09;2.33;;;2.03;;
27003;SDS011;14546;47.590;19.022;2023-08-31T09:37:37;6.75;;;2.33;;
27003;SDS011;14546;47.590;19.022;2023-08-31T09:40:03;5.05;;;2.30;;
27003;SDS011;14546;47.590;19.022;2023-08-31T09:42:38;3.55;;;2.30;;
27003;SDS011;14546;47.590;19.022;2023-08-31T09:45:05;6.82;;;2.35;;
27003;SDS011;14546;47.590;19.022;2023-08-31T09:47:32;4.57;;;2.03;;
27003;SDS011;14546;47.590;19.022;2023-08-31T09:49:59;3.55;;;2.22;;
27003;SDS011;14546;47.590;19.022;2023-08-31T09:52:26;4.45;;;2.35;;
27003;SDS011;14546;47.590;19.022;2023-08-31T09:54:53;6.18;;;2.30;;
27003;SDS011;14546;47.590;19.022;2023-08-31T09:57:20;6.43;;;2.20;;
27003;SDS011;14546;47.590;19.022;2023-08-31T09:59:48;4.72;;;2.42;;
27003;SDS011;14546;47.590;19.022;2023-08-31T10:02:14;4.45;;;2.45;;
27003;SDS011;14546;47.590;19.022;2023-08-31T10:04:42;2.83;;;2.33;;
27003;SDS011;14546;47.590;19.022;2023-08-31T10:07:08;4.82;;;2.35;;
27003;SDS011;14546;47.590;19.022;2023-08-31T10:09:35;9.35;;;2.50;;
27003;SDS011;14546;47.590;19.022;2023-08-31T10:12:02;2.58;;;2.35;;
27003;SDS011;14546;47.590;19.022;2023-08-31T10:14:29;3.25;;;2.47;;
27003;SDS011;14546;47.590;19.022;2023-08-31T10:16:56;4.57;;;2.20;;
27003;SDS011;14546;47.590;19.022;2023-08-31T10:19:23;12.27;;;2.65;;
27003;SDS011;14546;47.590;19.022;2023-08-31T10:21:50;4.72;;;2.50;;
27003;SDS011;14546;47.590;19.022;2023-08-31T10:24:16;5.20;;;2.50;;
27003;SDS011;14546;47.590;19.022;2023-08-31T10:26:43;4.93;;;3.13;;
27003;SDS011;14546;47.590;19.022;2023-08-31T10:29:25;4.65;;;2.58;;
27003;SDS011;14546;47.590;19.022;2023-08-31T10:31:52;3.10;;;2.40;;
27003;SDS011;14546;47.590;19.022;2023-08-31T10:34:18;3.15;;;2.30;;
27003;SDS011;14546;47.590;19.022;2023-08-31T10:36:59;3.35;;;2.33;;
27003;SDS011;14546;47.590;19.022;2023-08-31T10:39:37;9.05;;;2.50;;
27003;SDS011;14546;47.590;19.022;2023-08-31T10:42:03;8.02;;;2.47;;
27003;SDS011;14546;47.590;19.022;2023-08-31T10:44:30;4.15;;;2.10;;
27003;SDS011;14546;47.590;19.022;2023-08-31T10:47:02;3.08;;;2.17;;
27003;SDS011;14546;47.590;19.022;2023-08-31T10:49:29;3.50;;;2.10;;
27003;SDS011;14546;47.590;19.022;2023-08-31T10:52:17;3.25;;;2.30;;
27003;SDS011;14546;47.590;19.022;2023-08-31T10:54:45;4.07;;;2.28;;
27003;SDS011;14546;47.590;19.022;2023-08-31T10:57:13;2.60;;;2.08;;
27003;SDS011;14546;47.590;19.022;2023-08-31T10:59:48;5.07;;;2.15;;
27003;SDS011;14546;47.590;19.022;2023-08-31T11:05:16;6.00;;;2.40;;
27003;SDS011;14546;47.590;19.022;2023-08-31T11:07:43;4.60;;;2.13;;
27003;SDS011;14546;47.590;19.022;2023-08-31T11:10:11;15.82;;;2.95;;
27003;SDS011;14546;47.590;19.022;2023-08-31T11:12:39;13.15;;;2.45;;
27003;SDS011;14546;47.590;19.022;2023-08-31T11:15:05;11.73;;;2.05;;
27003;SDS011;14546;47.590;19.022;2023-08-31T11:17:33;5.43;;;1.90;;
27003;SDS011;14546;47.590;19.022;2023-08-31T11:20:20;7.55;;;1.98;;
27003;SDS011;14546;47.590;19.022;2023-08-31T11:22:47;8.23;;;2.35;;
27003;SDS011;14546;47.590;19.022;2023-08-31T11:25:18;2.53;;;2.28;;
27003;SDS011;14546;47.590;19.022;2023-08-31T11:30:20;2.60;;;1.92;;
27003;SDS011;14546;47.590;19.022;2023-08-31T11:32:50;5.78;;;2.58;;
27003;SDS011;14546;47.590;19.022;2023-08-31T11:35:18;5.25;;;2.20;;
27003;SDS011;14546;47.590;19.022;2023-08-31T11:37:44;3.08;;;2.00;;
27003;SDS011;14546;47.590;19.022;2023-08-31T11:40:11;4.13;;;2.25;;
27003;SDS011;14546;47.590;19.022;2023-08-31T11:42:40;3.67;;;2.10;;
27003;SDS011;14546;47.590;19.022;2023-08-31T11:45:07;6.50;;;2.30;;
27003;SDS011;14546;47.590;19.022;2023-08-31T11:47:35;6.72;;;2.78;;
27003;SDS011;14546;47.590;19.022;2023-08-31T11:50:02;3.60;;;2.08;;
27003;SDS011;14546;47.590;19.022;2023-08-31T11:52:32;3.17;;;2.00;;
27003;SDS011;14546;47.590;19.022;2023-08-31T11:54:58;4.78;;;2.30;;
27003;SDS011;14546;47.590;19.022;2023-08-31T11:57:26;3.90;;;2.10;;
27003;SDS011;14546;47.590;19.022;2023-08-31T11:59:54;2.10;;;1.90;;
27003;SDS011;14546;47.590;19.022;2023-08-31T12:02:23;2.30;;;2.10;;
27003;SDS011;14546;47.590;19.022;2023-08-31T12:04:50;3.05;;;2.05;;
27003;SDS011;14546;47.590;19.022;2023-08-31T12:07:17;3.20;;;2.17;;
27003;SDS011;14546;47.590;19.022;2023-08-31T12:09:43;5.40;;;2.17;;
27003;SDS011;14546;47.590;19.022;2023-08-31T12:12:10;2.90;;;2.05;;
27003;SDS011;14546;47.590;19.022;2023-08-31T12:14:37;3.28;;;1.80;;
27003;SDS011;14546;47.590;19.022;2023-08-31T12:17:07;3.50;;;1.80;;
27003;SDS011;14546;47.590;19.022;2023-08-31T12:19:35;3.70;;;1.90;;
27003;SDS011;14546;47.590;19.022;2023-08-31T12:22:02;2.80;;;1.88;;
27003;SDS011;14546;47.590;19.022;2023-08-31T12:24:29;4.68;;;1.80;;
27003;SDS011;14546;47.590;19.022;2023-08-31T12:26:55;4.57;;;1.55;;
27003;SDS011;14546;47.590;19.022;2023-08-31T12:29:22;1.95;;;1.75;;
27003;SDS011;14546;47.590;19.022;2023-08-31T12:31:49;2.28;;;1.63;;
27003;SDS011;14546;47.590;19.022;2023-08-31T12:34:16;2.17;;;1.60;;
27003;SDS011;14546;47.590;19.022;2023-08-31T12:36:42;5.43;;;1.90;;
27003;SDS011;14546;47.590;19.022;2023-08-31T12:39:09;2.95;;;1.50;;
27003;SDS011;14546;47.590;19.022;2023-08-31T12:41:37;3.08;;;1.88;;
27003;SDS011;14546;47.590;19.022;2023-08-31T12:44:03;1.70;;;1.48;;
27003;SDS011;14546;47.590;19.022;2023-08-31T12:46:30;2.97;;;1.42;;
27003;SDS011;14546;47.590;19.022;2023-08-31T12:48:56;1.90;;;1.50;;
27003;SDS011;14546;47.590;19.022;2023-08-31T12:51:22;3.72;;;1.77;;
27003;SDS011;14546;47.590;19.022;2023-08-31T12:53:48;4.75;;;1.73;;
27003;SDS011;14546;47.590;19.022;2023-08-31T12:56:14;5.07;;;1.80;;
27003;SDS011;14546;47.590;19.022;2023-08-31T12:58:47;2.00;;;1.40;;
27003;SDS011;14546;47.590;19.022;2023-08-31T13:01:13;2.63;;;1.40;;
27003;SDS011;14546;47.590;19.022;2023-08-31T13:03:39;4.93;;;1.40;;
27003;SDS011;14546;47.590;19.022;2023-08-31T13:06:05;4.78;;;1.50;;
27003;SDS011;14546;47.590;19.022;2023-08-31T13:08:31;3.70;;;1.67;;
27003;SDS011;14546;47.590;19.022;2023-08-31T13:10:57;4.10;;;1.50;;
27003;SDS011;14546;47.590;19.022;2023-08-31T13:13:23;2.20;;;1.35;;
27003;SDS011;14546;47.590;19.022;2023-08-31T13:15:49;2.05;;;1.52;;
27003;SDS011;14546;47.590;19.022;2023-08-31T13:18:15;2.15;;;1.80;;
27003;SDS011;14546;47.590;19.022;2023-08-31T13:20:48;2.00;;;1.40;;
27003;SDS011;14546;47.590;19.022;2023-08-31T13:23:14;3.03;;;1.40;;
27003;SDS011;14546;47.590;19.022;2023-08-31T13:25:40;4.30;;;1.60;;
27003;SDS011;14546;47.590;19.022;2023-08-31T13:28:06;2.45;;;1.40;;
27003;SDS011;14546;47.590;19.022;2023-08-31T13:30:32;1.95;;;1.50;;
27003;SDS011;14546;47.590;19.022;2023-08-31T13:32:58;2.97;;;1.55;;
27003;SDS011;14546;47.590;19.022;2023-08-31T13:35:24;5.55;;;1.58;;
27003;SDS011;14546;47.590;19.022;2023-08-31T13:37:52;5.30;;;1.88;;
27003;SDS011;14546;47.590;19.022;2023-08-31T13:40:18;2.00;;;1.67;;
27003;SDS011;14546;47.590;19.022;2023-08-31T13:42:57;2.45;;;1.63;;
27003;SDS011;14546;47.590;19.022;2023-08-31T13:45:26;3.83;;;1.80;;
27003;SDS011;14546;47.590;19.022;2023-08-31T13:47:52;2.72;;;1.80;;
27003;SDS011;14546;47.590;19.022;2023-08-31T13:50:18;2.65;;;1.70;;
27003;SDS011;14546;47.590;19.022;2023-08-31T13:52:45;1.50;;;1.40;;
27003;SDS011;14546;47.590;19.022;2023-08-31T13:55:11;2.38;;;1.85;;
27003;SDS011;14546;47.590;19.022;2023-08-31T13:57:38;5.28;;;1.83;;
27003;SDS011;14546;47.590;19.022;2023-08-31T14:00:04;2.03;;;1.75;;
27003;SDS011;14546;47.590;19.022;2023-08-31T14:02:33;6.68;;;1.63;;
27003;SDS011;14546;47.590;19.022;2023-08-31T14:05:00;2.05;;;1.55;;
27003;SDS011;14546;47.590;19.022;2023-08-31T14:07:27;2.75;;;1.70;;
27003;SDS011;14546;47.590;19.022;2023-08-31T14:09:53;3.05;;;1.83;;
27003;SDS011;14546;47.590;19.022;2023-08-31T14:12:19;5.35;;;1.60;;
27003;SDS011;14546;47.590;19.022;2023-08-31T14:14:46;5.90;;;1.80;;
27003;SDS011;14546;47.590;19.022;2023-08-31T14:17:12;3.97;;;1.70;;
27003;SDS011;14546;47.590;19.022;2023-08-31T14:19:38;3.25;;;1.90;;
27003;SDS011;14546;47.590;19.022;2023-08-31T14:22:04;2.95;;;1.88;;
27003;SDS011;14546;47.590;19.022;2023-08-31T14:24:31;2.60;;;1.60;;
27003;SDS011;14546;47.590;19.022;2023-08-31T14:26:57;5.88;;;2.00;;
27003;SDS011;14546;47.590;19.022;2023-08-31T14:29:23;2.08;;;1.73;;
27003;SDS011;14546;47.590;19.022;2023-08-31T14:31:49;2.53;;;1.70;;
27003;SDS011;14546;47.590;19.022;2023-08-31T14:34:16;1.77;;;1.45;;
27003;SDS011;14546;47.590;19.022;2023-08-31T14:36:42;3.78;;;1.40;;
27003;SDS011;14546;47.590;19.022;2023-08-31T14:39:08;3.17;;;1.65;;
27003;SDS011;14546;47.590;19.022;2023-08-31T14:41:35;3.80;;;1.63;;
27003;SDS011;14546;47.590;19.022;2023-08-31T14:44:01;6.53;;;2.10;;
27003;SDS011;14546;47.590;19.022;2023-08-31T14:46:27;2.83;;;1.70;;
27003;SDS011;14546;47.590;19.022;2023-08-31T14:48:53;2.05;;;1.70;;
27003;SDS011;14546;47.590;19.022;2023-08-31T14:51:20;3.75;;;1.90;;